createdAt,value
2024-05-09T00:02:10.906Z,69.64
2024-05-09T00:04:41.033Z,69.61
2024-05-09T00:07:11.380Z,69.66
2024-05-09T00:09:41.289Z,69.77
2024-05-09T00:12:11.456Z,70.14
2024-05-09T00:14:41.666Z,70.53
2024-05-09T00:17:11.855Z,70.85
2024-05-09T00:19:42.062Z,71.12
2024-05-09T00:22:12.014Z,71.40
2024-05-09T00:24:41.921Z,71.13
2024-05-09T00:27:13.460Z,70.82
2024-05-09T00:29:43.366Z,70.98
2024-05-09T00:32:13.850Z,70.85
2024-05-09T00:34:44.023Z,70.92
2024-05-09T00:37:14.166Z,70.80
2024-05-09T00:39:44.213Z,70.81
2024-05-09T00:42:14.268Z,70.58
2024-05-09T00:44:44.381Z,70.88
2024-05-09T00:47:14.351Z,71.18
2024-05-09T00:49:44.622Z,71.03
2024-05-09T00:52:14.930Z,70.90
2024-05-09T00:54:44.984Z,71.02
2024-05-09T00:57:15.225Z,71.13
2024-05-09T00:59:45.123Z,71.06
2024-05-09T01:02:15.646Z,71.32
2024-05-09T01:04:45.974Z,71.53
2024-05-09T01:07:16.220Z,72.00
2024-05-09T01:09:46.243Z,71.85
2024-05-09T01:12:16.824Z,71.91
2024-05-09T01:14:48.280Z,71.68
2024-05-09T01:17:18.728Z,71.77
2024-05-09T01:19:48.804Z,71.87
2024-05-09T01:22:19.194Z,71.67
2024-05-09T01:24:49.739Z,71.51
2024-05-09T01:27:19.927Z,71.35
2024-05-09T01:29:49.832Z,71.54
2024-05-09T01:32:19.795Z,71.76
2024-05-09T01:34:50.025Z,71.77
2024-05-09T01:37:19.967Z,71.61
2024-05-09T01:39:49.947Z,71.58
2024-05-09T01:42:20.181Z,72.02
2024-05-09T01:44:50.513Z,72.60
2024-05-09T01:47:20.455Z,72.37
2024-05-09T01:49:51.119Z,72.64
2024-05-09T01:52:21.029Z,72.91
2024-05-09T01:54:52.472Z,72.84
2024-05-09T01:57:22.416Z,72.58
2024-05-09T01:59:52.330Z,72.57
2024-05-09T02:02:22.688Z,72.84
2024-05-09T02:04:52.647Z,73.13
2024-05-09T02:07:22.738Z,72.99
2024-05-09T02:09:55.472Z,72.96
2024-05-09T02:12:25.507Z,73.11
2024-05-09T02:14:55.479Z,73.17
2024-05-09T02:17:25.751Z,73.37
2024-05-09T02:19:55.753Z,73.63
2024-05-09T02:22:25.814Z,73.86
2024-05-09T02:24:55.973Z,74.02
2024-05-09T02:27:25.818Z,74.06
2024-05-09T02:29:55.620Z,74.26
2024-05-09T02:32:25.702Z,74.34
2024-05-09T02:34:55.741Z,74.44
2024-05-09T02:37:25.879Z,74.94
2024-05-09T02:39:53.251Z,75.17
2024-05-09T02:42:23.615Z,75.39
2024-05-09T02:44:51.183Z,75.53
2024-05-09T02:47:21.289Z,75.82
2024-05-09T02:49:48.754Z,76.03
2024-05-09T02:52:21.988Z,76.15
2024-05-09T02:54:49.273Z,76.26
2024-05-09T02:57:19.212Z,76.48
2024-05-09T02:59:46.861Z,76.66
2024-05-09T03:02:16.842Z,77.03
2024-05-09T03:04:44.324Z,77.24
2024-05-09T03:07:14.555Z,77.63
2024-05-09T03:09:47.107Z,77.88
2024-05-09T03:12:17.421Z,78.05
2024-05-09T03:14:44.811Z,78.14
2024-05-09T03:17:14.789Z,78.29
2024-05-09T03:19:42.394Z,78.43
2024-05-09T03:22:12.726Z,78.71
2024-05-09T03:24:40.076Z,78.77
2024-05-09T03:27:10.548Z,78.80
2024-05-09T03:29:37.920Z,78.85
2024-05-09T03:32:08.435Z,79.04
2024-05-09T03:34:36.270Z,79.23
2024-05-09T03:37:06.253Z,79.47
2024-05-09T03:39:37.167Z,79.73
2024-05-09T03:42:10.271Z,79.89
2024-05-09T03:44:39.147Z,80.14
2024-05-09T03:47:09.146Z,80.31
2024-05-09T03:49:36.461Z,80.48
2024-05-09T03:52:07.223Z,80.55
2024-05-09T03:54:37.610Z,80.60
2024-05-09T03:57:07.978Z,80.71
2024-05-09T03:59:36.845Z,80.81
2024-05-09T04:02:06.961Z,80.83
2024-05-09T04:04:34.913Z,80.77
2024-05-09T04:07:04.985Z,80.75
2024-05-09T04:09:32.231Z,80.23
2024-05-09T04:12:02.534Z,79.87
2024-05-09T04:14:30.120Z,79.54
2024-05-09T04:17:00.032Z,78.74
2024-05-09T04:19:27.791Z,77.65
2024-05-09T04:21:57.774Z,76.82
2024-05-09T04:24:25.184Z,76.22
2024-05-09T04:26:55.869Z,75.42
2024-05-09T04:29:23.420Z,74.69
2024-05-09T04:31:53.651Z,74.08
2024-05-09T04:34:21.515Z,73.64
2024-05-09T04:36:51.567Z,72.90
2024-05-09T04:39:18.959Z,72.31
2024-05-09T04:41:51.599Z,72.06
2024-05-09T04:44:19.025Z,71.53
2024-05-09T04:46:50.780Z,70.95
2024-05-09T04:49:18.423Z,70.19
2024-05-09T04:51:48.452Z,69.07
2024-05-09T04:54:26.320Z,69.16
2024-05-09T04:57:03.927Z,67.82
2024-05-09T04:59:31.568Z,67.83
2024-05-09T05:02:02.140Z,66.89
2024-05-09T05:04:29.969Z,66.26
2024-05-09T05:07:02.528Z,65.75
2024-05-09T05:09:30.888Z,65.38
2024-05-09T05:12:03.334Z,65.29
2024-05-09T05:14:30.918Z,64.10
2024-05-09T05:17:00.915Z,63.76
2024-05-09T05:19:28.453Z,64.07
2024-05-09T05:21:58.589Z,64.05
2024-05-09T05:24:25.795Z,63.89
2024-05-09T05:26:56.012Z,63.67
2024-05-09T05:29:23.382Z,63.02
2024-05-09T05:31:53.380Z,62.61
2024-05-09T05:34:21.050Z,62.14
2024-05-09T05:36:50.870Z,60.84
2024-05-09T05:39:18.144Z,60.31
2024-05-09T05:41:48.029Z,60.92
2024-05-09T05:44:16.036Z,61.36
2024-05-09T05:46:45.953Z,61.64
2024-05-09T05:49:14.179Z,60.87
2024-05-09T05:51:44.098Z,60.62
2024-05-09T05:54:11.335Z,60.10
2024-05-09T05:56:41.356Z,60.29
2024-05-09T05:59:08.657Z,59.95
2024-05-09T06:01:38.928Z,59.45
2024-05-09T06:04:06.285Z,58.96
2024-05-09T06:06:36.268Z,58.67
2024-05-09T06:09:03.539Z,57.07
2024-05-09T06:11:33.526Z,57.46
2024-05-09T06:14:01.617Z,56.96
2024-05-09T06:16:31.520Z,55.74
2024-05-09T06:18:59.230Z,55.26
2024-05-09T06:21:29.178Z,54.44
2024-05-09T06:23:56.469Z,54.82
2024-05-09T06:26:26.514Z,55.03
2024-05-09T06:28:53.864Z,55.34
2024-05-09T06:31:23.725Z,53.74
2024-05-09T06:33:51.517Z,52.90
2024-05-09T06:36:21.832Z,52.50
2024-05-09T06:38:49.170Z,51.71
2024-05-09T06:41:19.025Z,52.17
2024-05-09T06:43:46.465Z,51.30
2024-05-09T06:46:16.287Z,50.14
2024-05-09T06:48:44.521Z,49.93
2024-05-09T06:51:15.225Z,50.45
2024-05-09T06:53:42.687Z,49.41
2024-05-09T06:56:12.921Z,47.75
2024-05-09T06:58:40.733Z,47.42
2024-05-09T07:01:10.702Z,48.94
2024-05-09T07:03:38.297Z,47.42
2024-05-09T07:06:08.526Z,47.00
2024-05-09T07:08:35.877Z,46.16
2024-05-09T07:11:05.910Z,46.41
2024-05-09T07:13:33.298Z,45.81
2024-05-09T07:16:03.179Z,45.75
2024-05-09T07:18:31.942Z,45.43
2024-05-09T07:21:02.130Z,45.21
2024-05-09T07:23:29.375Z,46.23
2024-05-09T07:25:59.334Z,46.20
2024-05-09T07:28:26.598Z,46.14
2024-05-09T07:30:56.455Z,46.10
2024-05-09T07:33:24.855Z,45.62
2024-05-09T07:35:55.080Z,45.40
2024-05-09T07:38:22.509Z,44.69
2024-05-09T07:40:52.575Z,43.37
2024-05-09T07:43:19.993Z,44.77
2024-05-09T07:45:53.713Z,44.68
2024-05-09T07:53:39.914Z,43.44
2024-05-09T07:56:14.634Z,44.03
2024-05-09T07:58:47.456Z,42.37
2024-05-09T08:01:17.743Z,43.87
2024-05-09T08:03:45.628Z,43.29
2024-05-09T08:06:15.738Z,44.26
2024-05-09T08:08:43.043Z,43.44
2024-05-09T08:11:12.974Z,43.38
2024-05-09T08:13:42.992Z,43.22
2024-05-09T08:16:13.027Z,42.70
2024-05-09T08:18:40.950Z,41.87
2024-05-09T08:21:10.976Z,42.84
2024-05-09T08:23:38.228Z,43.17
2024-05-09T08:26:08.191Z,42.83
2024-05-09T08:28:35.788Z,42.31
2024-05-09T08:31:07.188Z,41.54
2024-05-09T08:33:35.067Z,41.83
2024-05-09T08:36:05.365Z,41.91
2024-05-09T08:38:32.646Z,41.14
2024-05-09T08:41:03.289Z,40.89
2024-05-09T08:43:31.403Z,40.35
2024-05-09T08:46:02.262Z,39.82
2024-05-09T08:48:30.597Z,38.43
2024-05-09T08:51:01.610Z,38.43
2024-05-09T08:53:28.919Z,37.96
2024-05-09T08:56:00.100Z,35.00
2024-05-09T08:58:27.999Z,36.37
2024-05-09T09:00:58.229Z,38.22
2024-05-09T09:03:27.963Z,38.49
2024-05-09T09:06:04.969Z,38.05
2024-05-09T09:08:32.652Z,38.34
2024-05-09T09:11:02.453Z,36.43
2024-05-09T09:13:29.902Z,36.32
2024-05-09T09:16:01.287Z,36.82
2024-05-09T09:18:29.356Z,35.78
2024-05-09T09:20:59.580Z,35.83
2024-05-09T09:23:28.476Z,36.43
2024-05-09T09:26:07.492Z,36.42
2024-05-09T09:28:40.939Z,36.77
2024-05-09T09:31:11.125Z,36.70
2024-05-09T09:33:45.060Z,35.58
2024-05-09T09:36:15.916Z,35.30
2024-05-09T09:38:44.316Z,33.27
2024-05-09T09:41:15.848Z,31.63
2024-05-09T09:43:43.713Z,31.59
2024-05-09T09:46:14.672Z,31.55
2024-05-09T09:48:42.327Z,31.44
2024-05-09T09:51:13.056Z,30.35
2024-05-09T09:53:40.594Z,31.17
2024-05-09T09:56:11.531Z,33.14
2024-05-09T09:58:39.677Z,29.43
2024-05-09T10:01:09.662Z,28.01
2024-05-09T10:03:37.240Z,30.22
2024-05-09T10:06:19.440Z,33.43
2024-05-09T10:08:47.792Z,34.13
2024-05-09T10:11:23.098Z,34.29
2024-05-09T10:13:52.300Z,34.23
2024-05-09T10:16:25.630Z,34.46
2024-05-09T10:18:55.606Z,33.83
2024-05-09T10:21:25.621Z,33.57
2024-05-09T10:24:01.034Z,34.55
2024-05-09T10:26:38.194Z,34.31
2024-05-09T10:29:18.496Z,32.45
2024-05-09T10:31:46.933Z,33.82
2024-05-09T10:34:25.037Z,35.64
2024-05-09T10:36:57.559Z,36.93
2024-05-09T10:39:31.565Z,37.36
2024-05-09T10:41:59.058Z,36.86
2024-05-09T10:44:29.524Z,35.76
2024-05-09T10:46:57.282Z,36.47
2024-05-09T10:49:27.365Z,36.74
2024-05-09T10:51:54.756Z,37.11
2024-05-09T10:54:24.865Z,35.73
2024-05-09T10:56:58.675Z,34.65
2024-05-09T10:59:29.017Z,34.33
2024-05-09T11:01:56.367Z,35.42
2024-05-09T11:04:26.501Z,35.06
2024-05-09T11:06:54.052Z,35.92
2024-05-09T11:09:24.100Z,35.13
2024-05-09T11:11:54.472Z,34.79
2024-05-09T11:14:25.765Z,35.59
2024-05-09T11:17:05.834Z,35.46
2024-05-09T11:19:37.119Z,34.75
2024-05-09T11:22:05.078Z,33.61
2024-05-09T11:24:36.042Z,34.68
2024-05-09T11:27:05.169Z,34.29
2024-05-09T11:29:41.583Z,33.31
2024-05-09T11:32:11.413Z,33.63
2024-05-09T11:34:42.239Z,33.30
2024-05-09T11:37:13.855Z,32.87
2024-05-09T11:39:46.747Z,33.09
2024-05-09T11:42:14.345Z,31.96
2024-05-09T11:44:44.568Z,33.34
2024-05-09T11:47:11.847Z,32.75
2024-05-09T11:49:41.898Z,31.95
2024-05-09T11:52:09.580Z,31.48
2024-05-09T11:54:42.115Z,32.23
2024-05-09T11:57:09.899Z,32.78
2024-05-09T11:59:39.765Z,31.59
2024-05-09T12:02:07.374Z,32.07
2024-05-09T12:04:37.704Z,32.05
2024-05-09T12:07:05.149Z,31.49
2024-05-09T12:09:35.164Z,32.16
2024-05-09T12:12:02.788Z,30.88
2024-05-09T12:14:34.003Z,31.72
2024-05-09T12:17:05.785Z,32.61
2024-05-09T12:19:36.066Z,34.12
2024-05-09T12:22:03.401Z,33.63
2024-05-09T12:24:33.635Z,33.72
2024-05-09T12:27:01.043Z,32.42
2024-05-09T12:29:30.846Z,32.17
2024-05-09T12:31:58.461Z,33.84
2024-05-09T12:34:28.381Z,33.00
2024-05-09T12:36:55.799Z,33.44
2024-05-09T12:39:26.060Z,34.00
2024-05-09T12:41:53.631Z,33.99
2024-05-09T12:44:23.490Z,34.03
2024-05-09T12:46:50.821Z,34.98
2024-05-09T12:49:20.999Z,32.97
2024-05-09T12:51:48.495Z,33.66
2024-05-09T12:54:18.456Z,33.34
2024-05-09T12:56:46.413Z,32.62
2024-05-09T12:59:16.307Z,33.02
2024-05-09T13:01:43.641Z,33.93
2024-05-09T13:04:13.887Z,34.21
2024-05-09T13:06:41.436Z,34.76
2024-05-09T13:09:11.944Z,34.95
2024-05-09T13:11:39.303Z,35.03
2024-05-09T13:14:10.303Z,34.61
2024-05-09T13:16:37.657Z,35.21
2024-05-09T13:19:08.514Z,34.93
2024-05-09T13:21:35.866Z,35.10
2024-05-09T13:24:05.732Z,35.34
2024-05-09T13:26:33.333Z,35.45
2024-05-09T13:29:03.115Z,34.49
2024-05-09T13:31:30.595Z,36.08
2024-05-09T13:34:03.329Z,36.01
2024-05-09T13:36:32.838Z,36.32
2024-05-09T13:39:03.920Z,36.58
2024-05-09T13:41:31.867Z,36.77
2024-05-09T13:44:01.716Z,36.30
2024-05-09T13:46:29.122Z,36.58
2024-05-09T13:49:00.314Z,36.49
2024-05-09T13:51:28.090Z,36.21
2024-05-09T13:53:59.830Z,36.14
2024-05-09T13:56:27.473Z,35.86
2024-05-09T13:58:57.631Z,36.46
2024-05-09T14:01:26.498Z,36.44
2024-05-09T14:03:56.834Z,36.79
2024-05-09T14:06:24.607Z,37.11
2024-05-09T14:09:09.563Z,37.23
2024-05-09T14:11:37.468Z,36.95
2024-05-09T14:14:08.726Z,37.30
2024-05-09T14:16:36.722Z,36.45
2024-05-09T14:19:07.273Z,37.28
2024-05-09T14:21:36.367Z,37.38
2024-05-09T14:24:06.711Z,36.85
2024-05-09T14:26:34.332Z,36.48
2024-05-09T14:29:05.064Z,37.57
2024-05-09T14:31:33.808Z,37.76
2024-05-09T14:34:06.637Z,37.50
2024-05-09T14:36:34.766Z,37.44
2024-05-09T14:39:05.267Z,37.39
2024-05-09T14:41:36.047Z,36.90
2024-05-09T14:44:07.222Z,36.59
2024-05-09T14:46:34.959Z,37.26
2024-05-09T14:49:06.386Z,37.36
2024-05-09T14:51:35.259Z,37.36
2024-05-09T14:54:07.374Z,37.03
2024-05-09T14:56:34.874Z,36.26
2024-05-09T14:59:05.466Z,35.87
2024-05-09T15:01:34.033Z,35.94
2024-05-09T15:04:04.741Z,36.65
2024-05-09T15:06:32.577Z,37.17
2024-05-09T15:09:04.976Z,36.98
2024-05-09T15:11:32.805Z,37.17
2024-05-09T15:14:03.210Z,37.21
2024-05-09T15:17:35.850Z,37.86
2024-05-09T15:20:09.615Z,38.18
2024-05-09T15:22:38.970Z,38.83
2024-05-09T15:25:09.797Z,38.40
2024-05-09T15:27:37.663Z,38.06
2024-05-09T15:30:10.813Z,36.46
2024-05-09T15:32:38.960Z,36.84
2024-05-09T15:35:11.302Z,37.63
2024-05-09T15:37:41.741Z,37.44
2024-05-09T15:40:18.324Z,36.32
2024-05-09T15:42:52.810Z,36.57
2024-05-09T15:45:21.327Z,37.50
2024-05-09T15:47:51.831Z,37.39
2024-05-09T15:50:28.317Z,38.11
2024-05-09T15:53:07.437Z,38.56
2024-05-09T15:55:36.159Z,39.36
2024-05-09T15:58:08.272Z,38.59
2024-05-09T16:00:40.057Z,39.60
2024-05-09T16:03:15.267Z,39.12
2024-05-09T16:05:47.351Z,39.41
2024-05-09T16:08:18.575Z,38.63
2024-05-09T16:10:47.921Z,38.10
2024-05-09T16:13:20.172Z,37.15
2024-05-09T16:15:48.208Z,37.41
2024-05-09T16:18:20.368Z,37.76
2024-05-09T16:20:50.108Z,38.22
2024-05-09T16:23:21.725Z,38.61
2024-05-09T16:25:51.724Z,38.27
2024-05-09T16:28:24.683Z,38.98
2024-05-09T16:30:54.499Z,38.96
2024-05-09T16:33:27.784Z,39.34
2024-05-09T16:35:55.905Z,38.92
2024-05-09T16:38:26.587Z,40.23
2024-05-09T16:40:55.320Z,39.98
2024-05-09T16:43:26.095Z,39.79
2024-05-09T16:45:54.311Z,39.81
2024-05-09T16:48:24.636Z,39.79
2024-05-09T16:50:52.476Z,39.78
2024-05-09T16:53:27.373Z,39.18
2024-05-09T16:55:58.167Z,39.88
2024-05-09T16:58:29.672Z,40.85
2024-05-09T17:00:57.440Z,40.08
2024-05-09T17:03:27.935Z,39.99
2024-05-09T17:05:56.502Z,40.00
2024-05-09T17:08:27.113Z,39.96
2024-05-09T17:10:54.938Z,40.13
2024-05-09T17:13:26.181Z,40.97
2024-05-09T17:15:56.505Z,40.86
2024-05-09T17:18:27.228Z,40.74
2024-05-09T17:20:55.221Z,41.29
2024-05-09T17:23:25.605Z,41.32
2024-05-09T17:25:53.637Z,41.62
2024-05-09T17:28:23.479Z,41.72
2024-05-09T17:30:50.815Z,42.30
2024-05-09T17:33:21.005Z,42.16
2024-05-09T17:35:50.490Z,42.29
2024-05-09T17:38:23.113Z,42.55
2024-05-09T17:40:51.054Z,42.56
2024-05-09T17:43:21.309Z,42.94
2024-05-09T17:45:49.036Z,42.98
2024-05-09T17:48:20.314Z,43.16
2024-05-09T17:50:47.658Z,43.26
2024-05-09T17:53:17.575Z,43.54
2024-05-09T17:55:44.962Z,43.65
2024-05-09T17:58:15.953Z,44.23
2024-05-09T18:00:43.324Z,44.95
2024-05-09T18:03:14.474Z,45.41
2024-05-09T18:05:43.058Z,45.62
2024-05-09T18:08:14.266Z,45.55
2024-05-09T18:10:41.983Z,45.66
2024-05-09T18:13:12.590Z,45.97
2024-05-09T18:15:40.403Z,46.29
2024-05-09T18:18:10.900Z,46.55
2024-05-09T18:20:43.821Z,46.70
2024-05-09T18:23:18.175Z,47.12
2024-05-09T18:25:46.710Z,47.18
2024-05-09T18:28:17.691Z,47.39
2024-05-09T18:30:45.436Z,48.08
2024-05-09T18:33:18.065Z,48.42
2024-05-09T18:35:45.923Z,49.34
2024-05-09T18:38:18.034Z,49.54
2024-05-09T18:40:48.350Z,49.90
2024-05-09T18:43:26.190Z,50.18
2024-05-09T18:45:58.712Z,50.41
2024-05-09T18:48:28.833Z,51.09
2024-05-09T18:50:56.718Z,51.65
2024-05-09T18:53:28.434Z,51.87
2024-05-09T18:55:55.729Z,51.84
2024-05-09T18:58:25.642Z,52.31
2024-05-09T19:00:55.483Z,52.75
2024-05-09T19:03:26.607Z,53.00
2024-05-09T19:05:54.300Z,53.34
2024-05-09T19:08:24.162Z,53.44
2024-05-09T19:10:52.662Z,53.56
2024-05-09T19:13:22.953Z,53.97
2024-05-09T19:15:50.370Z,54.43
2024-05-09T19:18:20.597Z,54.69
2024-05-09T19:20:48.098Z,55.07
2024-05-09T19:23:17.913Z,55.45
2024-05-09T19:25:45.197Z,55.78
2024-05-09T19:28:15.376Z,56.04
2024-05-09T19:30:43.251Z,56.44
2024-05-09T19:33:14.602Z,57.00
2024-05-09T19:35:43.551Z,57.63
2024-05-09T19:38:13.904Z,58.29
2024-05-09T19:40:41.432Z,58.63
2024-05-09T19:43:11.663Z,58.92
2024-05-09T19:45:39.119Z,59.33
2024-05-09T19:48:09.327Z,59.83
2024-05-09T19:50:42.362Z,60.17
2024-05-09T19:53:14.807Z,60.39
2024-05-09T19:55:43.190Z,60.45
2024-05-09T19:58:13.404Z,60.67
2024-05-09T20:00:42.952Z,61.04
2024-05-09T20:03:15.751Z,61.04
2024-05-09T20:05:45.505Z,61.11
2024-05-09T20:08:16.275Z,61.33
2024-05-09T20:10:43.758Z,61.39
2024-05-09T20:13:13.833Z,61.52
2024-05-09T20:15:41.242Z,61.65
2024-05-09T20:18:11.435Z,61.94
2024-05-09T20:20:41.991Z,62.06
2024-05-09T20:23:14.473Z,62.58
2024-05-09T20:25:45.233Z,62.59
2024-05-09T20:28:12.691Z,62.68
2024-05-09T20:30:42.770Z,62.72
2024-05-09T20:33:10.548Z,62.70
2024-05-09T20:35:40.641Z,63.13
2024-05-09T20:38:08.448Z,63.04
2024-05-09T20:40:39.629Z,63.08
2024-05-09T20:43:09.004Z,63.14
2024-05-09T20:45:39.944Z,63.26
2024-05-09T20:48:08.632Z,63.27
2024-05-09T20:50:41.532Z,63.32
2024-05-09T20:53:12.715Z,63.50
2024-05-09T20:55:44.390Z,63.18
2024-05-09T20:58:12.772Z,63.42
2024-05-09T21:00:45.126Z,63.57
2024-05-09T21:03:16.185Z,63.60
2024-05-09T21:05:47.693Z,63.72
2024-05-09T21:08:16.097Z,63.98
2024-05-09T21:10:45.964Z,64.12
2024-05-09T21:13:16.101Z,64.07
2024-05-09T21:15:43.529Z,64.17
2024-05-09T21:18:13.470Z,64.23
2024-05-09T21:20:40.768Z,64.34
2024-05-09T21:23:10.591Z,64.14
2024-05-09T21:25:37.794Z,63.85
2024-05-09T21:28:08.172Z,64.07
2024-05-09T21:30:41.502Z,64.46
2024-05-09T21:33:14.713Z,65.08
2024-05-09T21:35:43.685Z,65.00
2024-05-09T21:38:14.938Z,64.78
2024-05-09T21:40:42.922Z,64.78
2024-05-09T21:43:14.647Z,64.78
2024-05-09T21:45:42.317Z,64.93
2024-05-09T21:48:12.453Z,64.85
2024-05-09T21:50:42.013Z,65.08
2024-05-09T21:53:13.953Z,65.23
2024-05-09T21:55:42.866Z,65.21
2024-05-09T21:58:13.026Z,65.14
2024-05-09T22:00:42.875Z,64.67
2024-05-09T22:03:13.018Z,64.06
2024-05-09T22:05:44.869Z,64.06
2024-05-09T22:08:15.153Z,63.69
2024-05-09T22:10:43.089Z,63.50
2024-05-09T22:13:13.683Z,63.47
2024-05-09T22:15:41.228Z,63.34
2024-05-09T22:18:12.129Z,63.32
2024-05-09T22:20:45.047Z,63.50
2024-05-09T22:23:16.614Z,63.82
2024-05-09T22:25:44.341Z,64.82
2024-05-09T22:28:16.463Z,65.41
2024-05-09T22:30:45.882Z,65.85
2024-05-09T22:33:16.237Z,66.54
2024-05-09T22:35:43.663Z,66.92
2024-05-09T22:38:14.182Z,67.50
2024-05-09T22:40:47.479Z,68.01
2024-05-09T22:43:23.883Z,68.49
2024-05-09T22:45:53.940Z,68.76
2024-05-09T22:48:24.883Z,68.68
2024-05-09T22:50:52.720Z,68.95
2024-05-09T22:53:26.036Z,68.99
2024-05-09T22:55:53.619Z,69.06
2024-05-09T22:58:24.004Z,69.37
2024-05-09T23:00:51.797Z,69.45
2024-05-09T23:03:22.834Z,69.93
2024-05-09T23:05:50.414Z,69.77
2024-05-09T23:08:20.656Z,69.94
2024-05-09T23:10:47.947Z,70.10
2024-05-09T23:13:17.798Z,70.36
2024-05-09T23:15:45.262Z,70.51
2024-05-09T23:18:15.284Z,70.83
2024-05-09T23:20:42.543Z,70.86
2024-05-09T23:23:12.611Z,70.41
2024-05-09T23:25:41.421Z,70.45
2024-05-09T23:28:11.704Z,70.78
2024-05-09T23:30:41.028Z,70.86
2024-05-09T23:33:15.755Z,71.05
2024-05-09T23:35:44.420Z,71.27
2024-05-09T23:38:14.745Z,71.27
2024-05-09T23:40:43.043Z,71.71
2024-05-09T23:43:14.288Z,71.83
2024-05-09T23:45:42.509Z,72.19
2024-05-09T23:48:12.796Z,72.20
2024-05-09T23:50:41.093Z,72.33
2024-05-09T23:53:11.598Z,72.32
2024-05-09T23:55:39.537Z,72.46
2024-05-09T23:58:11.678Z,72.32
